Latest Weather Observations for Lombadina

IDW60801

Issued at 7:02 am WST Sunday 1 March 2015 (issued every 30 minutes, with the page automatically refreshed every 10 minutes)

About weather observations | Map of weather stations | Latest weather observations for WA | Other Formats
Station Details ID: 503016 Name: LOMBADINA AIRSTRIP Lat: -16.52 Lon: 122.92 Height: 42.0 m
Data from the previous 72 hours. | See also: Recent months for locations in Western Australia
Date/Time
WST
Temp
°C
App
Temp
°C
Dew
Point
Rel
Hum
%
Delta-T
°C
Wind Press
QNH
hPa
Press
MSL
hPa
Rain
since 9 am
mm
Dir
 
Spd
km/h
Gust
km/h
Spd
kts
Gust
kts
01/07:00am 25.3 30.4 24.7 96 0.4 S 6 11 3 6 1008.5 1008.1 2.4
01/06:30am 25.7 31.1 25.2 97 0.3 SE 6 11 3 6 1008.6 1008.2 2.2
01/06:00am 25.6 32.1 25.0 96 0.4 CALM 0 6 0 3 1007.8 1007.4 2.2
01/05:46am 25.6 30.8 25.1 97 0.3 WSW 7 13 4 7 1007.4 1007.0 2.0
01/05:30am 26.3 32.2 25.3 94 0.7 W 4 17 2 9 1007.6 1007.2 0.8
01/05:27am 26.5 32.4 25.3 93 0.8 W 4 17 2 9 1007.5 1007.1 0.4
01/05:00am 25.8 31.8 24.9 95 0.6 SSE 2 4 1 2 1007.2 1006.8 0.0
01/04:30am 25.7 32.0 24.8 95 0.6 CALM 0 0 0 0 1007.2 1006.8 0.0
01/04:00am 26.1 32.4 24.8 92 0.9 CALM 0 4 0 2 1006.3 1005.9 0.0
01/03:30am 25.8 32.3 25.1 96 0.5 CALM 0 4 0 2 1006.3 1005.9 0.0
01/03:00am 26.1 32.6 25.1 94 0.7 CALM 0 0 0 0 1006.5 1006.1 0.0
01/02:30am 26.1 32.8 25.4 96 0.5 CALM 0 4 0 2 1006.6 1006.2 0.0
01/02:00am 26.1 32.7 25.3 95 0.6 CALM 0 4 0 2 1006.3 1005.9 0.0
01/01:30am 26.2 32.7 25.1 94 0.8 CALM 0 2 0 1 1006.4 1006.0 0.0
01/01:00am 26.4 32.1 25.0 92 1.0 S 4 6 2 3 1006.5 1006.1 0.0
01/12:30am 26.3 32.1 25.1 93 0.8 WSW 4 7 2 4 1006.2 1005.8 0.0
01/12:00am 26.3 32.8 25.0 92 0.9 CALM 0 0 0 0 1006.9 1006.5 0.0
 
Date/Time
WST
Temp
°C
App
Temp
°C
Dew
Point
Rel
Hum
%
Delta-T
°C
Wind Press
QNH
hPa
Press
MSL
hPa
Rain
since 9 am
mm
Dir
 
Spd
km/h
Gust
km/h
Spd
kts
Gust
kts
28/11:30pm 26.6 33.2 25.2 92 1.0 CALM 0 4 0 2 1007.1 1006.7 0.0
28/11:00pm 26.9 33.2 25.3 91 1.1 SW 2 6 1 3 1007.3 1006.9 0.0
28/10:30pm 26.8 33.8 25.8 94 0.7 CALM 0 6 0 3 1007.6 1007.2 0.0
28/10:00pm 27.1 34.0 25.7 92 1.0 CALM 0 2 0 1 1007.9 1007.5 0.0
28/09:30pm 27.5 34.4 25.7 90 1.3 CALM 0 4 0 2 1007.9 1007.5 0.0
28/09:00pm 28.0 35.2 26.1 89 1.4 CALM 0 0 0 0 1007.9 1007.5 0.0
28/08:30pm 27.9 34.9 26.4 91 1.1 SSW 2 4 1 2 1007.9 1007.5 0.0
28/08:00pm 28.0 35.2 26.1 89 1.4 CALM 0 0 0 0 1007.9 1007.5 0.0
28/07:30pm 28.9 36.2 26.3 86 1.9 CALM 0 4 0 2 1007.5 1007.1 0.0
28/07:00pm 28.9 35.6 26.0 84 2.1 W 2 7 1 4 1006.8 1006.4 0.0
28/06:30pm 29.1 35.2 25.6 81 2.5 W 4 7 2 4 1006.3 1005.9 0.0
28/06:00pm 29.4 36.0 25.8 81 2.6 W 2 7 1 4 1006.6 1006.2 0.0
28/05:30pm 29.6 35.6 25.5 78 2.9 WSW 4 9 2 5 1006.8 1006.4 0.0
28/05:00pm 29.9 35.5 25.4 77 3.2 W 6 13 3 7 1006.6 1006.2 0.0
28/04:30pm 30.2 36.7 25.7 77 3.2 W 2 9 1 5 1006.0 1005.6 0.0
28/04:00pm 29.9 35.4 25.6 78 3.1 WNW 7 15 4 8 1005.7 1005.3 0.0
28/03:30pm 31.0 35.9 25.3 71 4.0 NW 9 17 5 9 1004.8 1004.5 0.0
28/03:00pm 31.5 36.5 25.4 70 4.3 NW 9 17 5 9 1004.9 1004.6 0.0
28/02:30pm 31.9 35.7 24.1 63 5.4 NW 11 20 6 11 1005.3 1004.9 0.0
28/02:00pm 31.7 35.2 23.6 62 5.6 NW 11 17 6 9 1005.9 1005.5 0.0
28/01:30pm 32.1 35.9 24.0 62 5.7 NW 11 19 6 10 1006.2 1005.8 0.0
28/01:00pm 31.7 35.6 24.3 65 5.2 NW 11 19 6 10 1006.6 1006.2 0.0
28/12:30pm 32.4 36.1 23.2 58 6.4 WNW 9 15 5 8 1007.0 1006.6 0.0
28/12:00pm 31.9 36.1 24.1 63 5.5 NW 9 17 5 9 1007.4 1007.0 0.0
28/11:30am 32.0 36.3 23.6 61 5.8 NW 7 15 4 8 1007.9 1007.5 0.0
28/11:00am 31.6 36.4 24.4 65 5.1 NW 7 13 4 7 1008.5 1008.1 0.0
28/10:30am 31.6 36.6 24.5 66 5.0 WNW 6 11 3 6 1008.7 1008.3 0.0
28/10:00am 31.3 36.0 24.3 66 4.9 NW 7 13 4 7 1009.0 1008.7 0.0
28/09:30am 30.6 35.9 25.3 73 3.7 NW 7 13 4 7 1009.2 1008.9 0.0
28/09:00am 31.1 37.0 25.4 71 4.0 WNW 4 11 2 6 1009.1 1008.8 4.2
28/08:30am 31.6 37.7 25.1 68 4.6 NE 2 6 1 3 1008.9 1008.6 4.2
28/08:00am 30.3 35.9 24.9 73 3.8 W 4 7 2 4 1008.6 1008.2 4.2
28/07:30am 29.9 36.0 25.1 75 3.4 WSW 2 6 1 3 1008.4 1008.0 4.2
28/07:00am 28.7 35.6 25.7 84 2.1 CALM 0 4 0 2 1008.1 1007.7 4.2
28/06:30am 27.1 34.3 26.2 95 0.6 CALM 0 0 0 0 1007.8 1007.4 4.2
28/06:00am 25.3 31.8 25.1 99 0.1 CALM 0 2 0 1 1007.3 1006.9 4.2
28/05:30am 25.3 31.6 24.7 96 0.4 CALM 0 0 0 0 1007.1 1006.7 4.2
28/05:00am 25.4 31.7 24.8 96 0.4 CALM 0 0 0 0 1006.8 1006.4 4.2
28/04:30am 26.4 32.9 25.1 92 0.9 CALM 0 2 0 1 1006.8 1006.4 4.2
28/04:00am 26.6 33.4 25.5 94 0.8 CALM 0 2 0 1 1006.7 1006.3 4.2
28/03:30am 27.3 33.8 25.0 87 1.6 CALM 0 4 0 2 1006.5 1006.1 4.2
28/03:00am 27.5 33.7 25.2 87 1.6 W 2 6 1 3 1006.5 1006.1 4.2
28/02:30am 27.6 34.0 25.5 88 1.5 WNW 2 7 1 4 1006.4 1006.0 4.2
28/02:00am 26.3 33.0 25.9 98 0.3 NW 2 6 1 3 1006.4 1006.0 4.2
28/01:30am 26.1 33.1 25.9 99 0.1 CALM 0 0 0 0 1006.7 1006.3 4.2
28/01:00am 26.6 33.8 26.1 97 0.4 CALM 0 0 0 0 1007.0 1006.6 4.2
28/12:30am 26.6 33.8 26.2 98 0.3 CALM 0 0 0 0 1007.4 1007.0 4.2
28/12:00am 26.6 33.9 26.3 98 0.2 CALM 0 0 0 0 1007.8 1007.4 4.2
 
Date/Time
WST
Temp
°C
App
Temp
°C
Dew
Point
Rel
Hum
%
Delta-T
°C
Wind Press
QNH
hPa
Press
MSL
hPa
Rain
since 9 am
mm
Dir
 
Spd
km/h
Gust
km/h
Spd
kts
Gust
kts
27/11:30pm 26.1 32.9 25.5 96 0.4 CALM 0 0 0 0 1008.1 1007.7 4.2
27/11:00pm 26.3 33.1 25.5 95 0.6 CALM 0 0 0 0 1008.2 1007.8 4.2
27/10:30pm 27.2 33.9 25.9 93 0.9 NNE 2 6 1 3 1008.3 1007.9 4.2
27/10:00pm 26.5 33.2 25.4 94 0.8 CALM 0 0 0 0 1008.4 1008.0 4.2
27/09:30pm 27.2 34.0 25.6 91 1.1 CALM 0 6 0 3 1008.0 1007.6 4.2
27/09:00pm 27.4 34.4 25.8 91 1.1 CALM 0 2 0 1 1007.6 1007.2 4.2
27/08:30pm 27.1 33.2 25.6 91 1.1 ENE 4 7 2 4 1007.2 1006.8 4.2
27/08:00pm 27.2 34.2 25.9 93 0.9 CALM 0 4 0 2 1006.8 1006.4 4.2
27/07:30pm 26.8 33.8 25.9 95 0.6 CALM 0 0 0 0 1006.5 1006.1 4.2
27/07:00pm 27.5 34.7 26.2 93 0.9 CALM 0 0 0 0 1006.4 1006.0 4.2
27/06:30pm 27.2 33.6 25.5 90 1.2 SSW 2 4 1 2 1006.3 1005.9 4.2
27/06:00pm 27.9 34.8 25.7 88 1.6 CALM 0 4 0 2 1006.2 1005.8 4.2
27/05:30pm 28.8 35.1 25.4 82 2.4 E 2 6 1 3 1005.9 1005.5 4.2
27/05:00pm 28.8 35.1 24.8 79 2.8 CALM 0 2 0 1 1005.2 1004.8 4.2
27/04:30pm 28.2 34.3 25.0 83 2.2 SE 2 7 1 4 1005.2 1004.8 4.2
27/04:00pm 27.7 33.4 25.0 85 1.9 ESE 4 9 2 5 1004.9 1004.6 4.2
27/03:30pm 28.1 34.6 25.7 87 1.7 SE 2 6 1 3 1004.9 1004.6 4.2
27/03:00pm 28.5 35.7 26.1 87 1.7 CALM 0 4 0 2 1005.3 1004.9 4.2
27/02:30pm 28.9 35.5 25.8 83 2.2 SSW 2 6 1 3 1005.4 1005.0 4.2
27/02:00pm 28.4 33.9 25.6 85 2.0 SW 7 15 4 8 1005.2 1004.8 4.2
27/01:30pm 29.5 36.3 27.3 88 1.6 W 6 11 3 6 1005.6 1005.2 4.2
27/01:00pm 28.5 35.9 26.4 88 1.5 CALM 0 4 0 2 1006.2 1005.8 4.0
27/12:45pm 27.9 34.5 25.2 85 1.9 CALM 0 6 0 3 1006.2 1005.8 4.0
27/12:30pm 26.1 30.5 25.0 94 0.8 NW 11 22 6 12 1006.6 1006.2 4.0
27/12:25pm 26.3 29.2 23.1 82 2.2 NW 13 22 7 12 1006.6 1006.2 3.0
27/12:00pm 30.9 36.1 25.1 71 4.1 NW 7 13 4 7 1007.0 1006.6 0.0
27/11:30am 31.4 36.0 24.7 67 4.7 NW 9 15 5 8 1007.4 1007.0 0.0
27/11:00am 31.5 36.2 24.9 68 4.7 NNW 9 15 5 8 1007.5 1007.1 0.0
27/10:30am 30.5 35.1 24.7 71 4.1 NW 9 15 5 8 1007.7 1007.3 0.0
27/10:00am 30.6 35.8 25.7 75 3.5 NW 9 17 5 9 1007.9 1007.5 0.0
27/09:30am 30.9 36.3 25.2 71 4.0 W 6 11 3 6 1008.1 1007.7 0.0
27/09:00am 31.3 37.1 25.7 72 4.0 W 6 9 3 5 1008.2 1007.8 0.0
27/08:30am 29.6 34.9 25.2 77 3.1 WNW 7 13 4 7 1008.4 1008.0 0.0
27/08:00am 30.1 36.3 25.8 78 3.1 NNW 4 9 2 5 1008.1 1007.7 0.0
27/07:30am 29.5 36.2 25.9 81 2.6 N 2 7 1 4 1007.9 1007.5 0.0
27/07:00am 28.5 35.6 26.0 86 1.8 CALM 0 2 0 1 1007.3 1006.9 0.0
27/06:30am 28.5 36.2 26.9 91 1.1 CALM 0 2 0 1 1007.1 1006.7 0.0
27/06:00am 26.7 33.7 25.9 95 0.6 CALM 0 0 0 0 1006.9 1006.5 0.0
27/05:30am 26.4 33.4 25.9 97 0.4 CALM 0 0 0 0 1006.5 1006.1 0.0
27/05:00am 26.4 33.3 25.7 96 0.5 CALM 0 0 0 0 1006.1 1005.7 0.0
27/04:30am 26.5 33.3 25.6 95 0.6 CALM 0 0 0 0 1005.5 1005.1 0.0
27/04:00am 27.2 34.3 26.0 93 0.9 CALM 0 2 0 1 1005.1 1004.7 0.0
27/03:30am 28.0 34.6 25.3 85 1.9 CALM 0 2 0 1 1005.2 1004.8 0.0
27/03:00am 28.2 34.5 25.4 85 2.0 WNW 2 7 1 4 1004.9 1004.6 0.0
27/02:30am 28.4 34.3 25.4 84 2.1 NW 4 7 2 4 1005.2 1004.8 0.0
27/02:00am 28.4 34.1 25.6 85 2.0 NNW 6 9 3 5 1005.2 1004.8 0.0
27/01:30am 27.9 34.1 25.8 88 1.5 NNW 4 9 2 5 1005.5 1005.1 0.0
27/01:00am 27.4 34.2 25.6 90 1.3 CALM 0 4 0 2 1006.0 1005.6 0.0
27/12:30am 27.6 34.6 25.9 90 1.2 CALM 0 6 0 3 1006.5 1006.1 0.0
27/12:00am 27.8 35.0 26.1 90 1.2 CALM 0 4 0 2 1007.2 1006.8 0.0
 
Date/Time
WST
Temp
°C
App
Temp
°C
Dew
Point
Rel
Hum
%
Delta-T
°C
Wind Press
QNH
hPa
Press
MSL
hPa
Rain
since 9 am
mm
Dir
 
Spd
km/h
Gust
km/h
Spd
kts
Gust
kts
26/11:30pm 27.9 34.7 26.2 90 1.2 NNE 2 6 1 3 1008.0 1007.6 0.0
26/11:00pm 27.4 34.6 26.1 93 0.9 CALM 0 0 0 0 1008.5 1008.1 0.0
26/10:30pm 27.8 34.5 26.0 90 1.3 ENE 2 6 1 3 1008.6 1008.2 0.0
26/10:00pm 28.1 34.6 25.7 87 1.7 NNE 2 6 1 3 1008.7 1008.3 0.0
26/09:30pm 27.9 33.8 25.3 86 1.8 NNE 4 6 2 3 1008.7 1008.3 0.0
26/09:00pm 27.9 34.7 25.6 87 1.6 CALM 0 2 0 1 1008.2 1007.8 0.0
26/08:30pm 28.0 34.7 26.0 89 1.4 NE 2 6 1 3 1007.7 1007.3 0.0
26/08:00pm 27.9 35.0 26.0 89 1.3 CALM 0 2 0 1 1007.0 1006.6 0.0
26/07:30pm 27.9 35.1 26.2 90 1.2 CALM 0 2 0 1 1006.8 1006.4 0.0
26/07:00pm 28.1 35.2 26.0 88 1.5 CALM 0 4 0 2 1006.3 1005.9 0.0
26/06:30pm 28.3 35.5 26.1 88 1.6 CALM 0 4 0 2 1005.9 1005.5 0.0
26/06:00pm 28.6 34.9 26.0 86 1.9 ENE 4 6 2 3 1005.7 1005.3 0.0
26/05:30pm 28.7 35.2 25.7 84 2.1 NNE 2 4 1 2 1004.8 1004.5 0.0
26/05:00pm 28.9 35.3 25.5 82 2.4 N 2 6 1 3 1004.5 1004.2 0.0
26/04:30pm 29.4 35.4 25.5 79 2.8 NNW 4 11 2 6 1004.4 1004.1 0.0
26/04:00pm 29.4 34.8 25.2 78 3.0 NNW 6 9 3 5 1004.5 1004.2 0.0
26/03:30pm 29.4 34.9 25.6 80 2.7 NW 7 13 4 7 1004.5 1004.2 0.0
26/03:00pm 29.8 34.5 25.5 78 3.0 NW 11 19 6 10 1004.7 1004.4 0.0
26/02:30pm 30.2 34.9 25.5 76 3.3 NW 11 17 6 9 1004.7 1004.4 0.0
26/02:00pm 31.5 36.1 25.3 69 4.4 NW 11 19 6 10 1005.1 1004.7 0.0
26/01:30pm 32.0 36.8 26.2 71 4.2 NW 13 19 7 10 1005.7 1005.3 0.0
26/01:00pm 32.2 38.4 26.4 71 4.2 NNW 6 13 3 7 1006.2 1005.8 0.0
26/12:30pm 31.6 37.0 25.1 68 4.6 NW 6 11 3 6 1006.8 1006.4 0.0
26/12:00pm 31.1 36.3 25.1 70 4.2 NW 7 13 4 7 1007.4 1007.0 0.0
26/11:30am 31.4 35.9 23.9 64 5.2 E 7 15 4 8 1007.9 1007.5 0.0
26/11:00am 30.7 34.6 24.8 71 4.2 E 13 17 7 9 1008.1 1007.7 0.0
26/10:30am 30.5 36.0 25.3 74 3.7 E 6 11 3 6 1008.5 1008.1 0.0
26/10:00am 30.7 36.3 24.3 68 4.5 NNW 2 6 1 3 1008.5 1008.1 0.0
26/09:30am 30.4 36.6 24.6 71 4.1 CALM 0 6 0 3 1008.5 1008.1 0.0
26/09:00am 30.3 36.0 24.4 70 4.1 W 2 7 1 4 1008.5 1008.1 0.0
26/08:30am 29.4 35.0 25.4 79 2.8 NW 6 9 3 5 1008.3 1007.9 0.0
26/08:00am 30.3 36.4 25.1 73 3.7 NNW 2 7 1 4 1008.2 1007.8 0.0
26/07:30am 29.0 35.3 25.3 80 2.6 N 2 6 1 3 1008.0 1007.6 0.0

Other Formats:

Comma delimited format used in spreadsheet applications
http://www.bom.gov.au/fwo/IDW60801/IDW60801.99206.axf

JavaScript Object Notation format (JSON) in row-major order
http://www.bom.gov.au/fwo/IDW60801/IDW60801.99206.json